createdAt,value
2019-04-10T00:01:17.430Z,101202.37
2019-04-10T00:03:48.294Z,101212.30
2019-04-10T00:06:18.697Z,101202.63
2019-04-10T00:08:50.579Z,101207.90
2019-04-10T00:11:20.774Z,101209.84
2019-04-10T00:13:53.904Z,101208.95
2019-04-10T00:16:24.455Z,101207.17
2019-04-10T00:18:54.656Z,101218.03
2019-04-10T00:21:25.740Z,101221.04
2019-04-10T00:23:55.894Z,101209.76
2019-04-10T00:26:26.091Z,101213.33
2019-04-10T00:28:58.096Z,101205.91
2019-04-10T00:31:28.384Z,101201.48
2019-04-10T00:34:01.078Z,101210.16
2019-04-10T00:36:33.177Z,101210.20
2019-04-10T00:39:04.314Z,101208.29
2019-04-10T00:41:36.523Z,101209.13
2019-04-10T00:44:09.593Z,101214.66
2019-04-10T00:46:40.154Z,101212.45
2019-04-10T00:49:11.199Z,101212.94
2019-04-10T00:51:41.745Z,101211.42
2019-04-10T00:54:14.606Z,101212.66
2019-04-10T00:56:45.310Z,101206.26
2019-04-10T00:59:15.814Z,101208.30
2019-04-10T01:01:45.996Z,101210.34
2019-04-10T01:04:16.306Z,101208.45
2019-04-10T01:06:46.421Z,101209.64
2019-04-10T01:09:17.400Z,101201.45
2019-04-10T01:11:47.664Z,101212.35
2019-04-10T01:14:18.024Z,101210.86
2019-04-10T01:16:49.799Z,101207.45
2019-04-10T01:19:20.123Z,101206.19
2019-04-10T01:21:50.680Z,101205.92
2019-04-10T01:24:21.671Z,101205.92
2019-04-10T01:26:51.981Z,101208.17
2019-04-10T01:29:22.245Z,101208.49
2019-04-10T01:31:53.131Z,101211.03
2019-04-10T01:34:23.651Z,101215.92
2019-04-10T01:36:54.586Z,101215.97
2019-04-10T01:39:28.588Z,101217.02
2019-04-10T01:41:58.784Z,101210.84
2019-04-10T01:44:29.697Z,101216.10
2019-04-10T01:47:00.018Z,101211.78
2019-04-10T01:49:31.478Z,101212.05
2019-04-10T01:52:03.013Z,101206.74
2019-04-10T01:54:33.611Z,101208.71
2019-04-10T01:57:04.155Z,101207.52
2019-04-10T01:59:36.485Z,101208.10
2019-04-10T02:02:25.331Z,101206.98
2019-04-10T02:04:56.800Z,101202.64
2019-04-10T02:07:27.143Z,101199.92
2019-04-10T02:09:57.471Z,101198.09
2019-04-10T02:12:28.411Z,101200.30
2019-04-10T02:14:58.737Z,101207.99
2019-04-10T02:17:28.905Z,101198.83
2019-04-10T02:20:00.823Z,101200.72
2019-04-10T02:22:32.907Z,101206.74
2019-04-10T02:25:03.440Z,101194.34
2019-04-10T02:27:34.385Z,101198.92
2019-04-10T02:30:08.124Z,101193.52
2019-04-10T02:32:39.327Z,101196.83
2019-04-10T02:35:13.200Z,101200.83
2019-04-10T02:37:43.424Z,101192.73
2019-04-10T02:40:15.070Z,101192.81
2019-04-10T02:42:47.154Z,101191.38
2019-04-10T02:45:19.315Z,101199.11
2019-04-10T02:47:50.965Z,101197.63
2019-04-10T02:50:22.649Z,101200.83
2019-04-10T02:52:52.877Z,101198.91
2019-04-10T02:55:24.901Z,101193.77
2019-04-10T02:57:56.365Z,101195.12
2019-04-10T03:00:30.353Z,101195.54
2019-04-10T03:03:01.422Z,101190.69
2019-04-10T03:05:35.489Z,101197.77
2019-04-10T03:08:07.021Z,101192.98
2019-04-10T03:10:44.451Z,101198.47
2019-04-10T03:13:11.463Z,101190.83
2019-04-10T03:15:45.078Z,101196.23
2019-04-10T03:18:18.966Z,101191.68
2019-04-10T03:20:49.371Z,101194.38
2019-04-10T03:23:19.804Z,101199.31
2019-04-10T03:25:50.950Z,101196.23
2019-04-10T03:28:21.323Z,101194.50
2019-04-10T03:30:53.598Z,101197.17
2019-04-10T03:33:50.579Z,101191.65
2019-04-10T03:36:19.848Z,101193.97
2019-04-10T03:38:59.607Z,101202.70
2019-04-10T03:41:24.168Z,101202.70
2019-04-10T03:43:54.337Z,101211.33
2019-04-10T03:46:25.564Z,101206.88
2019-04-10T03:48:56.081Z,101208.22
2019-04-10T03:51:26.540Z,101198.55
2019-04-10T03:53:57.070Z,101196.28
2019-04-10T03:56:27.694Z,101206.73
2019-04-10T03:58:58.026Z,101209.34
2019-04-10T04:01:29.078Z,101210.05
2019-04-10T04:03:59.457Z,101207.13
2019-04-10T04:06:31.432Z,101212.83
2019-04-10T04:09:08.979Z,101221.16
2019-04-10T04:11:34.050Z,101225.91
2019-04-10T04:14:04.254Z,101226.84
2019-04-10T04:16:35.264Z,101224.02
2019-04-10T04:19:05.946Z,101226.37
2019-04-10T04:21:36.455Z,101230.02
2019-04-10T04:24:07.112Z,101234.44
2019-04-10T04:26:45.152Z,101229.78
2019-04-10T04:29:16.424Z,101228.56
2019-04-10T04:31:46.602Z,101234.63
2019-04-10T04:34:17.227Z,101237.05
2019-04-10T04:36:49.181Z,101238.64
2019-04-10T04:39:25.779Z,101242.47
2019-04-10T04:41:52.125Z,101238.14
2019-04-10T04:44:27.521Z,101250.06
2019-04-10T04:47:01.206Z,101253.92
2019-04-10T04:49:35.797Z,101258.53
2019-04-10T04:52:06.941Z,101258.66
2019-04-10T04:54:37.302Z,101259.77
2019-04-10T04:57:08.575Z,101254.48
2019-04-10T04:59:38.771Z,101261.02
2019-04-10T05:02:10.013Z,101264.53
2019-04-10T05:04:41.614Z,101263.78
2019-04-10T05:07:13.416Z,101267.27
2019-04-10T05:09:44.067Z,101269.45
2019-04-10T05:12:16.387Z,101279.47
2019-04-10T05:14:46.363Z,101277.48
2019-04-10T05:17:18.176Z,101278.13
2019-04-10T05:19:48.590Z,101279.78
2019-04-10T05:22:18.865Z,101280.78
2019-04-10T05:24:49.217Z,101275.80
2019-04-10T05:27:19.690Z,101269.19
2019-04-10T05:29:50.604Z,101270.59
2019-04-10T05:32:23.362Z,101281.17
2019-04-10T05:34:54.709Z,101275.91
2019-04-10T05:37:25.505Z,101279.42
2019-04-10T05:39:56.285Z,101278.78
2019-04-10T05:42:26.873Z,101284.13
2019-04-10T05:44:57.261Z,101289.28
2019-04-10T05:47:28.319Z,101290.58
2019-04-10T05:49:59.649Z,101291.63
2019-04-10T05:52:30.897Z,101298.14
2019-04-10T05:55:02.310Z,101292.68
2019-04-10T05:57:32.936Z,101295.55
2019-04-10T06:00:04.748Z,101300.94
2019-04-10T06:02:35.022Z,101303.98
2019-04-10T06:05:07.881Z,101312.36
2019-04-10T06:07:38.201Z,101307.84
2019-04-10T06:10:10.655Z,101307.33
2019-04-10T06:12:40.762Z,101311.08
2019-04-10T06:15:11.342Z,101309.41
2019-04-10T06:17:42.743Z,101312.96
2019-04-10T06:20:14.136Z,101314.13
2019-04-10T06:22:45.524Z,101303.66
2019-04-10T06:25:16.495Z,101304.27
2019-04-10T06:27:48.418Z,101307.59
2019-04-10T06:30:19.708Z,101312.55
2019-04-10T06:32:53.863Z,101316.92
2019-04-10T06:35:24.416Z,101317.45
2019-04-10T06:37:54.827Z,101317.67
2019-04-10T06:40:27.191Z,101324.02
2019-04-10T06:42:58.426Z,101318.55
2019-04-10T06:45:29.627Z,101316.62
2019-04-10T06:48:00.508Z,101326.11
2019-04-10T06:50:31.626Z,101320.05
2019-04-10T06:53:01.825Z,101320.16
2019-04-10T06:55:32.332Z,101329.09
2019-04-10T06:58:02.861Z,101329.07
2019-04-10T07:00:33.085Z,101332.64
2019-04-10T07:03:04.253Z,101333.67
2019-04-10T07:05:41.396Z,101339.70
2019-04-10T07:08:14.469Z,101326.86
2019-04-10T07:10:48.341Z,101337.49
2019-04-10T07:13:13.072Z,101332.25
2019-04-10T07:15:45.142Z,101327.27
2019-04-10T07:18:18.222Z,101329.55
2019-04-10T07:20:47.939Z,101331.31
2019-04-10T07:23:24.143Z,101336.15
2019-04-10T07:25:51.992Z,101330.77
2019-04-10T07:28:23.634Z,101328.46
2019-04-10T07:30:56.864Z,101337.31
2019-04-10T07:33:26.667Z,101338.64
2019-04-10T07:35:57.914Z,101337.12
2019-04-10T07:38:28.045Z,101341.59
2019-04-10T07:40:58.898Z,101344.84
2019-04-10T07:43:30.270Z,101341.89
2019-04-10T07:46:00.788Z,101338.05
2019-04-10T07:48:31.481Z,101343.59
2019-04-10T07:51:02.848Z,101344.12
2019-04-10T07:53:35.172Z,101344.19
2019-04-10T07:56:09.123Z,101348.73
2019-04-10T07:58:37.753Z,101343.39
2019-04-10T08:01:09.865Z,101339.88
2019-04-10T08:03:40.186Z,101342.59
2019-04-10T08:06:11.060Z,101344.47
2019-04-10T08:08:42.525Z,101345.34
2019-04-10T08:11:13.805Z,101338.02
2019-04-10T08:13:49.235Z,101344.36
2019-04-10T08:16:19.397Z,101346.57
2019-04-10T08:18:49.874Z,101344.47
2019-04-10T08:21:20.048Z,101351.88
2019-04-10T08:23:51.472Z,101345.68
2019-04-10T08:26:22.722Z,101351.94
2019-04-10T08:28:54.050Z,101345.56
2019-04-10T08:31:25.279Z,101348.02
2019-04-10T08:33:57.160Z,101350.70
2019-04-10T08:36:27.627Z,101355.91
2019-04-10T08:38:59.137Z,101350.60
2019-04-10T08:41:29.691Z,101344.58
2019-04-10T08:43:59.956Z,101350.31
2019-04-10T08:46:30.568Z,101344.61
2019-04-10T08:49:00.768Z,101343.28
2019-04-10T08:51:33.115Z,101345.98
2019-04-10T08:54:03.813Z,101347.31
2019-04-10T08:56:33.950Z,101344.73
2019-04-10T08:59:04.113Z,101340.88
2019-04-10T09:01:34.238Z,101345.33
2019-04-10T09:04:05.626Z,101352.33
2019-04-10T09:06:35.909Z,101349.23
2019-04-10T09:09:07.858Z,101339.19
2019-04-10T09:11:39.080Z,101336.16
2019-04-10T09:14:09.263Z,101334.39
2019-04-10T09:16:39.582Z,101337.04
2019-04-10T09:19:09.956Z,101335.31
2019-04-10T09:21:40.152Z,101333.56
2019-04-10T09:24:10.299Z,101330.02
2019-04-10T09:26:40.386Z,101333.09
2019-04-10T09:29:11.837Z,101330.86
2019-04-10T09:31:42.138Z,101331.75
2019-04-10T09:34:12.360Z,101327.72
2019-04-10T09:36:43.655Z,101326.78
2019-04-10T09:39:17.241Z,101325.02
2019-04-10T09:41:47.348Z,101322.78
2019-04-10T09:44:18.660Z,101320.34
2019-04-10T09:46:49.908Z,101325.37
2019-04-10T09:49:31.670Z,101335.25
2019-04-10T09:51:52.254Z,101329.55
2019-04-10T09:54:23.982Z,101325.08
2019-04-10T09:56:54.876Z,101327.27
2019-04-10T09:59:33.227Z,101328.61
2019-04-10T10:01:57.018Z,101322.81
2019-04-10T10:04:27.197Z,101324.27
2019-04-10T10:06:57.440Z,101318.59
2019-04-10T10:09:29.213Z,101325.80
2019-04-10T10:11:59.564Z,101313.98
2019-04-10T10:14:31.951Z,101320.30
2019-04-10T10:17:01.863Z,101326.98
2019-04-10T10:19:32.237Z,101319.64
2019-04-10T10:22:04.978Z,101315.41
2019-04-10T10:24:35.452Z,101319.25
2019-04-10T10:27:05.784Z,101314.23
2019-04-10T10:29:35.958Z,101315.97
2019-04-10T10:32:06.231Z,101302.20
2019-04-10T10:34:36.705Z,101300.81
2019-04-10T10:37:08.355Z,101302.61
2019-04-10T10:39:39.004Z,101305.66
2019-04-10T10:42:09.614Z,101299.34
2019-04-10T10:44:40.882Z,101318.70
2019-04-10T10:47:11.790Z,101312.64
2019-04-10T10:49:42.395Z,101317.93
2019-04-10T10:52:12.558Z,101313.38
2019-04-10T10:54:43.240Z,101321.62
2019-04-10T10:57:13.702Z,101320.94
2019-04-10T10:59:43.991Z,101317.41
2019-04-10T11:02:14.737Z,101315.44
2019-04-10T11:04:45.349Z,101317.70
2019-04-10T11:07:16.181Z,101315.28
2019-04-10T11:09:46.371Z,101311.19
2019-04-10T11:12:17.657Z,101315.70
2019-04-10T11:14:48.208Z,101313.41
2019-04-10T11:17:19.700Z,101312.36
2019-04-10T11:19:51.273Z,101308.18
2019-04-10T11:22:23.008Z,101306.58
2019-04-10T11:24:53.493Z,101304.54
2019-04-10T11:27:23.695Z,101308.26
2019-04-10T11:29:54.820Z,101310.95
2019-04-10T11:32:26.515Z,101315.33
2019-04-10T11:34:56.960Z,101307.50
2019-04-10T11:37:37.459Z,101315.71
2019-04-10T11:40:02.250Z,101311.98
2019-04-10T11:42:35.091Z,101312.59
2019-04-10T11:45:10.285Z,101313.56
2019-04-10T11:47:40.729Z,101323.97
2019-04-10T11:50:15.368Z,101312.45
2019-04-10T11:52:51.226Z,101312.23
2019-04-10T11:55:19.939Z,101307.97
2019-04-10T11:57:49.077Z,101317.94
2019-04-10T12:00:33.280Z,101320.80
2019-04-10T12:03:04.877Z,101318.73
2019-04-10T12:05:37.789Z,101320.05
2019-04-10T12:08:33.558Z,101318.50
2019-04-10T12:13:14.163Z,101307.53
2019-04-10T12:15:50.368Z,101311.42
2019-04-10T12:18:20.730Z,101312.88
2019-04-10T12:20:53.819Z,101311.33
2019-04-10T12:23:25.113Z,101316.22
2019-04-10T12:25:55.722Z,101323.33
2019-04-10T12:28:26.021Z,101322.14
2019-04-10T12:30:56.153Z,101323.85
2019-04-10T12:33:27.393Z,101320.21
2019-04-10T12:35:58.210Z,101316.94
2019-04-10T12:38:28.442Z,101316.87
2019-04-10T12:40:59.211Z,101316.77
2019-04-10T12:43:29.428Z,101308.56
2019-04-10T12:46:00.297Z,101308.22
2019-04-10T12:48:30.524Z,101308.95
2019-04-10T12:51:01.393Z,101296.16
2019-04-10T12:53:31.780Z,101299.96
2019-04-10T12:56:02.135Z,101305.31
2019-04-10T12:58:32.972Z,101298.17
2019-04-10T13:01:06.627Z,101307.17
2019-04-10T13:03:37.120Z,101303.56
2019-04-10T13:06:07.479Z,101298.41
2019-04-10T13:08:53.422Z,101300.65
2019-04-10T13:11:10.136Z,101300.24
2019-04-10T13:13:40.763Z,101297.98
2019-04-10T13:16:11.940Z,101298.15
2019-04-10T13:18:42.817Z,101293.19
2019-04-10T13:21:13.111Z,101297.02
2019-04-10T13:23:43.293Z,101295.66
2019-04-10T13:26:13.598Z,101286.09
2019-04-10T13:28:43.836Z,101286.39
2019-04-10T13:31:14.128Z,101292.61
2019-04-10T13:33:44.768Z,101288.23
2019-04-10T13:36:15.477Z,101289.53
2019-04-10T13:38:46.433Z,101287.64
2019-04-10T13:41:16.775Z,101282.17
2019-04-10T13:43:49.764Z,101289.48
2019-04-10T13:46:20.495Z,101277.69
2019-04-10T13:48:51.478Z,101287.90
2019-04-10T13:51:21.596Z,101271.63
2019-04-10T13:53:52.343Z,101283.92
2019-04-10T13:56:23.239Z,101282.97
2019-04-10T13:58:53.447Z,101274.70
2019-04-10T14:01:28.271Z,101285.38
2019-04-10T14:03:58.631Z,101284.63
2019-04-10T14:06:29.691Z,101279.25
2019-04-10T14:09:16.533Z,101280.59
2019-04-10T14:11:33.502Z,101285.39
2019-04-10T14:14:04.720Z,101290.20
2019-04-10T14:16:35.108Z,101285.39
2019-04-10T14:19:06.320Z,101286.68
2019-04-10T14:21:38.752Z,101279.55
2019-04-10T14:24:09.555Z,101281.26
2019-04-10T14:27:08.068Z,101289.59
2019-04-10T14:29:38.629Z,101290.13
2019-04-10T14:32:13.377Z,101293.97
2019-04-10T14:34:44.906Z,101296.74
2019-04-10T14:37:15.600Z,101292.77
2019-04-10T14:39:45.748Z,101295.44
2019-04-10T14:42:16.123Z,101281.73
2019-04-10T14:44:46.470Z,101288.83
2019-04-10T14:47:17.200Z,101290.08
2019-04-10T14:49:47.481Z,101294.05
2019-04-10T14:52:17.667Z,101286.55
2019-04-10T14:54:48.211Z,101289.84
2019-04-10T14:57:18.935Z,101299.48
2019-04-10T14:59:50.631Z,101287.80
2019-04-10T15:02:22.243Z,101298.99
2019-04-10T15:04:53.200Z,101295.47
2019-04-10T15:07:23.307Z,101294.99
2019-04-10T15:09:53.500Z,101295.66
2019-04-10T15:12:24.683Z,101289.90
2019-04-10T15:14:56.148Z,101284.87
2019-04-10T15:17:26.517Z,101287.53
2019-04-10T15:19:56.751Z,101282.73
2019-04-10T15:22:27.643Z,101283.16
2019-04-10T15:24:58.003Z,101296.69
2019-04-10T15:27:29.266Z,101290.80
2019-04-10T15:29:59.551Z,101292.33
2019-04-10T15:32:29.817Z,101297.59
2019-04-10T15:35:00.479Z,101298.89
2019-04-10T15:37:31.317Z,101293.72
2019-04-10T15:40:13.500Z,101294.16
2019-04-10T15:42:34.320Z,101302.25
2019-04-10T15:45:05.091Z,101298.77
2019-04-10T15:47:35.434Z,101299.95
2019-04-10T15:50:06.923Z,101295.84
2019-04-10T15:52:39.691Z,101288.81
2019-04-10T15:55:15.279Z,101295.14
2019-04-10T15:57:53.037Z,101289.07
2019-04-10T16:00:19.141Z,101290.58
2019-04-10T16:02:59.372Z,101294.70
2019-04-10T16:05:33.385Z,101289.30
2019-04-10T16:08:05.334Z,101290.02
2019-04-10T16:11:07.915Z,101290.87
2019-04-10T16:13:44.410Z,101293.89
2019-04-10T16:16:36.931Z,101302.23
2019-04-10T16:19:31.612Z,101293.77
2019-04-10T16:22:02.697Z,101286.47
2019-04-10T16:24:33.134Z,101293.31
2019-04-10T16:27:03.502Z,101297.70
2019-04-10T16:29:34.304Z,101306.30
2019-04-10T16:32:10.678Z,101301.70
2019-04-10T16:34:45.738Z,101296.88
2019-04-10T16:37:16.716Z,101296.69
2019-04-10T16:39:57.782Z,101301.05
2019-04-10T16:42:24.442Z,101300.61
2019-04-10T16:44:55.466Z,101306.73
2019-04-10T16:47:32.391Z,101307.84
2019-04-10T16:50:11.205Z,101313.81
2019-04-10T16:52:43.234Z,101312.14
2019-04-10T16:55:13.648Z,101314.80
2019-04-10T16:57:45.195Z,101315.62
2019-04-10T17:00:17.115Z,101317.80
2019-04-10T17:02:48.607Z,101333.39
2019-04-10T17:05:19.024Z,101325.34
2019-04-10T17:07:49.574Z,101329.45
2019-04-10T17:10:24.454Z,101328.06
2019-04-10T17:12:53.988Z,101320.52
2019-04-10T17:15:24.114Z,101320.37
2019-04-10T17:17:54.866Z,101329.63
2019-04-10T17:20:26.648Z,101331.77
2019-04-10T17:22:56.805Z,101332.23
2019-04-10T17:25:28.493Z,101333.77
2019-04-10T17:28:00.281Z,101335.45
2019-04-10T17:30:33.761Z,101338.16
2019-04-10T17:33:02.880Z,101345.39
2019-04-10T17:35:36.428Z,101350.92
2019-04-10T17:38:06.905Z,101349.21
2019-04-10T17:40:44.374Z,101349.67
2019-04-10T17:43:12.748Z,101355.59
2019-04-10T17:45:42.956Z,101356.54
2019-04-10T17:48:13.681Z,101360.14
2019-04-10T17:50:45.811Z,101361.14
2019-04-10T17:53:17.229Z,101368.80
2019-04-10T17:55:49.795Z,101363.40
2019-04-10T17:58:21.288Z,101369.98
2019-04-10T18:00:55.548Z,101370.96
2019-04-10T18:03:40.529Z,101376.25
2019-04-10T18:05:59.392Z,101373.63
2019-04-10T18:08:30.143Z,101381.62
2019-04-10T18:11:00.509Z,101386.09
2019-04-10T18:13:30.919Z,101390.08
2019-04-10T18:16:02.677Z,101390.58
2019-04-10T18:18:37.979Z,101393.73
2019-04-10T18:21:17.193Z,101399.47
2019-04-10T18:23:51.490Z,101406.05
2019-04-10T18:26:23.656Z,101409.15
2019-04-10T18:28:54.182Z,101414.44
2019-04-10T18:31:26.479Z,101414.44
2019-04-10T18:33:56.402Z,101417.97
2019-04-10T18:36:27.705Z,101421.05
2019-04-10T18:38:58.235Z,101429.45
2019-04-10T18:41:29.915Z,101430.34
2019-04-10T18:44:00.548Z,101435.60
2019-04-10T18:46:31.249Z,101433.39
2019-04-10T18:49:01.548Z,101439.15
2019-04-10T18:51:32.024Z,101439.12
2019-04-10T18:54:02.470Z,101446.63
2019-04-10T18:56:33.458Z,101452.76
2019-04-10T18:59:26.841Z,101457.17
2019-04-10T19:02:15.851Z,101459.81
2019-04-10T19:04:55.096Z,101460.23
2019-04-10T19:07:25.528Z,101464.63
2019-04-10T19:09:56.659Z,101466.38
2019-04-10T19:12:26.887Z,101470.78
2019-04-10T19:14:57.111Z,101477.34
2019-04-10T19:17:27.373Z,101484.36
2019-04-10T19:19:58.725Z,101487.83
2019-04-10T19:22:28.939Z,101488.69
2019-04-10T19:25:00.586Z,101489.14
2019-04-10T19:27:31.894Z,101490.00
2019-04-10T19:30:04.838Z,101489.09
2019-04-10T19:32:37.504Z,101498.73
2019-04-10T19:35:08.058Z,101500.05
2019-04-10T19:37:38.832Z,101500.45
2019-04-10T19:40:11.158Z,101511.83
2019-04-10T19:42:41.823Z,101511.83
2019-04-10T19:45:12.230Z,101516.13
2019-04-10T19:47:42.505Z,101516.64
2019-04-10T19:50:13.105Z,101515.27
2019-04-10T19:52:44.569Z,101517.84
2019-04-10T19:55:15.613Z,101514.78
2019-04-10T19:57:45.824Z,101515.64
2019-04-10T20:00:18.120Z,101519.53
2019-04-10T20:02:49.037Z,101528.73
2019-04-10T20:05:19.415Z,101523.86
2019-04-10T20:07:49.791Z,101522.81
2019-04-10T20:10:21.255Z,101526.45
2019-04-10T20:12:51.517Z,101527.70
2019-04-10T20:15:22.536Z,101532.49
2019-04-10T20:17:53.157Z,101530.70
2019-04-10T20:20:23.581Z,101530.68
2019-04-10T20:22:54.047Z,101536.41
2019-04-10T20:25:24.273Z,101542.05
2019-04-10T20:27:54.417Z,101540.25
2019-04-10T20:30:28.001Z,101547.16
2019-04-10T20:32:58.637Z,101544.42
2019-04-10T20:35:28.935Z,101548.47
2019-04-10T20:37:59.077Z,101549.73
2019-04-10T20:40:29.716Z,101553.19
2019-04-10T20:42:59.904Z,101555.78
2019-04-10T20:45:30.155Z,101561.77
2019-04-10T20:48:00.352Z,101558.28
2019-04-10T20:50:32.445Z,101559.97
2019-04-10T20:53:05.243Z,101566.16
2019-04-10T20:55:35.593Z,101568.18
2019-04-10T20:58:06.631Z,101570.57
2019-04-10T21:00:41.080Z,101576.03
2019-04-10T21:03:13.533Z,101574.18
2019-04-10T21:05:44.564Z,101573.78
2019-04-10T21:08:15.750Z,101577.23
2019-04-10T21:10:47.010Z,101582.83
2019-04-10T21:13:17.342Z,101582.70
2019-04-10T21:15:52.899Z,101583.52
2019-04-10T21:18:23.707Z,101586.55
2019-04-10T21:20:53.938Z,101590.88
2019-04-10T21:23:24.056Z,101596.57
2019-04-10T21:25:55.317Z,101599.63
2019-04-10T21:28:25.976Z,101601.27
2019-04-10T21:31:20.371Z,101595.91
2019-04-10T21:34:30.526Z,101602.50
2019-04-10T21:37:10.222Z,101594.98
2019-04-10T21:39:41.529Z,101605.11
2019-04-10T21:42:22.342Z,101613.83
2019-04-10T21:44:57.495Z,101617.59
2019-04-10T21:47:38.681Z,101613.97
2019-04-10T21:50:18.593Z,101613.16
2019-04-10T21:53:12.239Z,101615.75
2019-04-10T21:55:49.836Z,101617.89
2019-04-10T21:58:30.435Z,101613.48
2019-04-10T22:01:05.795Z,101617.70
2019-04-10T22:03:46.296Z,101618.16
2019-04-10T22:06:51.611Z,101615.94
2019-04-10T22:10:07.910Z,101614.58
2019-04-10T22:12:45.461Z,101621.22
2019-04-10T22:15:22.992Z,101623.23
2019-04-10T22:17:53.518Z,101622.70
2019-04-10T22:20:23.720Z,101624.05
2019-04-10T22:22:56.285Z,101623.11
2019-04-10T22:25:31.920Z,101637.95
2019-04-10T22:28:04.303Z,101634.39
2019-04-10T22:30:35.014Z,101631.74
2019-04-10T22:33:05.752Z,101641.88
2019-04-10T22:35:38.041Z,101638.28
2019-04-10T22:38:08.978Z,101642.38
2019-04-10T22:40:40.075Z,101644.65
2019-04-10T22:43:10.191Z,101642.98
2019-04-10T22:45:40.938Z,101636.75
2019-04-10T22:48:11.066Z,101644.16
2019-04-10T22:50:41.176Z,101648.95
2019-04-10T22:53:11.336Z,101648.90
2019-04-10T22:55:42.440Z,101652.84
2019-04-10T22:58:12.923Z,101655.05
2019-04-10T23:00:43.821Z,101654.89
2019-04-10T23:03:13.972Z,101657.90
2019-04-10T23:05:44.740Z,101655.69
2019-04-10T23:08:17.670Z,101663.43
2019-04-10T23:10:46.781Z,101661.49
2019-04-10T23:13:18.049Z,101669.88
2019-04-10T23:15:49.377Z,101668.57
2019-04-10T23:18:19.685Z,101668.24
2019-04-10T23:20:50.310Z,101666.84
2019-04-10T23:23:21.049Z,101667.73
2019-04-10T23:25:54.332Z,101661.77
2019-04-10T23:28:25.312Z,101666.11
2019-04-10T23:30:55.530Z,101674.12
2019-04-10T23:33:26.040Z,101664.71
2019-04-10T23:35:56.167Z,101666.81
2019-04-10T23:38:26.334Z,101667.95
2019-04-10T23:40:56.962Z,101677.51
2019-04-10T23:43:27.436Z,101677.45
2019-04-10T23:45:57.892Z,101679.32
2019-04-10T23:48:28.746Z,101674.80
2019-04-10T23:50:58.844Z,101684.63
2019-04-10T23:53:29.016Z,101679.30
2019-04-10T23:55:59.118Z,101686.17
2019-04-10T23:58:29.776Z,101689.31
